createdAt,value
2023-04-24T00:02:45.734Z,99944.87
2023-04-24T00:05:47.617Z,99947.68
2023-04-24T00:08:50.581Z,99950.92
2023-04-24T00:11:51.632Z,99945.33
2023-04-24T00:14:45.556Z,99947.29
2023-04-24T00:17:32.608Z,99947.90
2023-04-24T00:20:32.575Z,99944.90
2023-04-24T00:23:32.626Z,99946.55
2023-04-24T00:26:32.564Z,99946.96
2023-04-24T00:29:32.628Z,99944.13
2023-04-24T00:32:33.609Z,99941.62
2023-04-24T00:35:34.737Z,99942.05
2023-04-24T00:38:27.723Z,99934.73
2023-04-24T00:41:27.598Z,99939.64
2023-04-24T00:44:27.701Z,99941.66
2023-04-24T00:47:28.649Z,99941.33
2023-04-24T00:50:28.691Z,99943.89
2023-04-24T00:53:28.656Z,99943.71
2023-04-24T00:56:28.698Z,99942.58
2023-04-24T00:59:29.649Z,99943.16
2023-04-24T01:02:29.766Z,99943.25
2023-04-24T01:05:29.677Z,99945.33
2023-04-24T01:08:22.761Z,99948.67
2023-04-24T01:11:23.660Z,99946.70
2023-04-24T01:14:23.677Z,99942.67
2023-04-24T01:17:23.761Z,99939.48
2023-04-24T01:20:23.710Z,99932.90
2023-04-24T01:23:23.713Z,99936.98
2023-04-24T01:26:23.726Z,99935.11
2023-04-24T01:29:23.751Z,99936.98
2023-04-24T01:32:23.723Z,99935.40
2023-04-24T01:35:23.712Z,99934.49
2023-04-24T01:38:23.696Z,99930.52
2023-04-24T01:41:23.799Z,99925.91
2023-04-24T01:44:23.726Z,99923.38
2023-04-24T01:47:23.774Z,99927.54
2023-04-24T01:50:23.777Z,99922.48
2023-04-24T01:53:23.718Z,99923.64
2023-04-24T01:56:23.733Z,99918.54
2023-04-24T01:59:26.723Z,99922.56
2023-04-24T02:02:27.853Z,99914.86
2023-04-24T02:05:27.771Z,99915.36
2023-04-24T02:08:29.819Z,99916.88
2023-04-24T02:11:29.917Z,99916.23
2023-04-24T02:14:29.964Z,99915.58
2023-04-24T02:17:29.932Z,99910.77
2023-04-24T02:20:30.747Z,99911.90
2023-04-24T02:23:31.355Z,99909.41
2023-04-24T02:26:31.818Z,99909.07
2023-04-24T02:29:31.849Z,99911.35
2023-04-24T02:32:31.834Z,99912.70
2023-04-24T02:35:31.914Z,99913.39
2023-04-24T02:38:31.811Z,99912.48
2023-04-24T02:41:38.110Z,99912.92
2023-04-24T02:44:37.863Z,99906.38
2023-04-24T02:47:37.906Z,99908.91
2023-04-24T02:50:37.833Z,99901.89
2023-04-24T02:53:37.844Z,99905.79
2023-04-24T02:56:37.912Z,99902.36
2023-04-24T02:59:37.837Z,99900.73
2023-04-24T03:02:38.114Z,99899.45
2023-04-24T03:05:37.889Z,99891.41
2023-04-24T03:08:37.849Z,99893.27
2023-04-24T03:11:37.899Z,99896.46
2023-04-24T03:14:37.858Z,99893.13
2023-04-24T03:17:38.099Z,99893.13
2023-04-24T03:20:37.934Z,99892.08
2023-04-24T03:23:38.874Z,99893.21
2023-04-24T03:26:38.994Z,99899.52
2023-04-24T03:30:01.932Z,99901.73
2023-04-24T03:33:14.942Z,99903.36
2023-04-24T03:36:21.975Z,99907.73
2023-04-24T03:39:21.890Z,99910.83
2023-04-24T03:42:24.029Z,99911.38
2023-04-24T03:45:23.933Z,99911.05
2023-04-24T03:48:23.944Z,99913.40
2023-04-24T03:51:23.932Z,99914.48
2023-04-24T03:54:29.997Z,99914.41
2023-04-24T03:57:22.945Z,99916.46
2023-04-24T04:00:34.937Z,99920.21
2023-04-24T04:03:57.218Z,99925.08
2023-04-24T04:06:56.965Z,99925.66
2023-04-24T04:09:57.000Z,99921.97
2023-04-24T04:12:57.039Z,99920.76
2023-04-24T04:15:57.011Z,99917.73
2023-04-24T04:18:56.978Z,99922.09
2023-04-24T04:21:59.976Z,99921.80
2023-04-24T04:25:10.038Z,99926.45
2023-04-24T04:28:10.027Z,99923.44
2023-04-24T04:31:09.982Z,99924.54
2023-04-24T04:34:10.102Z,99927.38
2023-04-24T04:37:10.083Z,99927.10
2023-04-24T04:40:34.100Z,99923.45
2023-04-24T04:43:42.023Z,99925.82
2023-04-24T04:46:44.054Z,99922.02
2023-04-24T04:49:50.023Z,99922.38
2023-04-24T04:52:51.046Z,99925.86
2023-04-24T04:55:55.132Z,99922.66
2023-04-24T04:59:02.083Z,99923.72
2023-04-24T05:02:03.137Z,99918.66
2023-04-24T05:05:03.181Z,99917.13
2023-04-24T05:08:04.492Z,99912.10
2023-04-24T05:11:06.100Z,99914.72
2023-04-24T05:14:06.132Z,99907.61
2023-04-24T05:17:07.138Z,99907.35
2023-04-24T05:20:07.112Z,99901.36
2023-04-24T05:23:07.069Z,99899.23
2023-04-24T05:26:08.215Z,99901.51
2023-04-24T05:29:08.096Z,99891.04
2023-04-24T05:32:09.145Z,99894.37
2023-04-24T05:35:09.131Z,99892.66
2023-04-24T05:38:09.172Z,99885.55
2023-04-24T05:41:09.298Z,99883.41
2023-04-24T05:44:09.137Z,99884.63
2023-04-24T05:47:09.215Z,99879.45
2023-04-24T05:50:09.181Z,99876.48
2023-04-24T05:53:09.254Z,99877.34
2023-04-24T05:56:09.145Z,99876.30
2023-04-24T05:59:09.208Z,99880.05
2023-04-24T06:02:09.312Z,99881.00
2023-04-24T06:05:09.205Z,99871.23
2023-04-24T06:08:09.283Z,99871.98
2023-04-24T06:11:04.822Z,99873.37
2023-04-24T06:14:05.226Z,99871.95
2023-04-24T06:17:05.236Z,99869.11
2023-04-24T06:20:07.217Z,99862.89
2023-04-24T06:23:07.238Z,99862.63
2023-04-24T06:26:08.235Z,99868.11
2023-04-24T06:29:08.268Z,99871.24
2023-04-24T06:32:08.312Z,99868.11
2023-04-24T06:35:08.318Z,99865.01
2023-04-24T06:38:09.285Z,99864.67
2023-04-24T06:41:10.306Z,99865.74
2023-04-24T06:44:10.280Z,99863.17
2023-04-24T06:47:10.302Z,99861.67
2023-04-24T06:50:10.293Z,99869.90
2023-04-24T06:53:10.274Z,99866.52
2023-04-24T06:56:10.318Z,99866.20
2023-04-24T06:59:10.280Z,99870.01
2023-04-24T07:02:10.446Z,99868.70
2023-04-24T07:05:03.411Z,99865.02
2023-04-24T07:08:05.372Z,99868.70
2023-04-24T07:11:05.357Z,99868.70
2023-04-24T07:14:05.298Z,99861.15
2023-04-24T07:17:05.351Z,99861.46
2023-04-24T07:20:05.437Z,99869.24
2023-04-24T07:22:58.327Z,99870.71
2023-04-24T07:25:38.774Z,99862.63
2023-04-24T07:28:26.393Z,99859.55
2023-04-24T07:31:05.881Z,99867.99
2023-04-24T07:33:52.427Z,99864.67
2023-04-24T07:36:52.359Z,99860.61
2023-04-24T07:39:53.387Z,99861.54
2023-04-24T07:42:55.422Z,99864.40
2023-04-24T07:45:48.527Z,99867.98
2023-04-24T07:48:48.890Z,99873.02
2023-04-24T07:51:51.436Z,99868.50
2023-04-24T07:54:52.408Z,99853.37
2023-04-24T07:57:53.393Z,99851.41
2023-04-24T08:00:53.461Z,99864.21
2023-04-24T08:03:54.588Z,99856.81
2023-04-24T08:06:54.369Z,99862.17
2023-04-24T08:09:54.666Z,99862.63
2023-04-24T08:12:54.391Z,99860.80
2023-04-24T08:15:54.471Z,99865.84
2023-04-24T08:18:54.470Z,99867.10
2023-04-24T08:21:55.411Z,99862.95
2023-04-24T08:24:55.429Z,99862.17
2023-04-24T08:27:55.447Z,99853.07
2023-04-24T08:30:55.437Z,99850.10
2023-04-24T08:33:55.480Z,99856.80
2023-04-24T08:36:55.426Z,99847.54
2023-04-24T08:39:55.539Z,99843.44
2023-04-24T08:42:58.458Z,99832.31
2023-04-24T08:45:58.610Z,99844.30
2023-04-24T08:48:58.492Z,99827.52
2023-04-24T08:51:51.447Z,99834.73
2023-04-24T08:54:38.528Z,99835.17
2023-04-24T08:57:38.584Z,99822.19
2023-04-24T09:00:38.571Z,99813.41
2023-04-24T09:03:39.748Z,99805.38
2023-04-24T09:06:39.544Z,99818.75
2023-04-24T09:09:39.515Z,99825.27
2023-04-24T09:12:39.564Z,99815.11
2023-04-24T09:15:40.521Z,99814.48
2023-04-24T09:18:42.534Z,99808.80
2023-04-24T09:21:45.831Z,99811.34
2023-04-24T09:24:45.589Z,99802.58
2023-04-24T09:27:45.555Z,99807.33
2023-04-24T09:30:47.215Z,99804.22
2023-04-24T09:34:12.579Z,99798.36
2023-04-24T09:37:12.699Z,99795.71
2023-04-24T09:40:24.596Z,99800.64
2023-04-24T09:43:24.626Z,99810.09
2023-04-24T09:46:24.690Z,99794.48
2023-04-24T09:49:27.683Z,99793.30
2023-04-24T09:52:28.705Z,99798.55
2023-04-24T09:55:29.615Z,99797.77
2023-04-24T09:58:22.646Z,99795.70
2023-04-24T10:01:09.666Z,99794.80
2023-04-24T10:04:09.640Z,99805.02
2023-04-24T10:07:10.635Z,99794.05
2023-04-24T10:10:11.705Z,99794.94
2023-04-24T10:13:12.659Z,99793.19
2023-04-24T10:16:12.735Z,99779.22
2023-04-24T10:19:12.702Z,99777.73
2023-04-24T10:22:12.662Z,99767.55
2023-04-24T10:25:12.652Z,99766.71
2023-04-24T10:28:12.645Z,99760.96
2023-04-24T10:31:12.745Z,99780.06
2023-04-24T10:34:12.689Z,99766.23
2023-04-24T10:37:12.749Z,99762.16
2023-04-24T10:40:12.737Z,99762.83
2023-04-24T10:43:16.715Z,99759.67
2023-04-24T10:46:18.745Z,99747.48
2023-04-24T10:49:18.791Z,99755.48
2023-04-24T10:52:18.723Z,99754.88
2023-04-24T10:55:18.717Z,99759.77
2023-04-24T10:58:19.770Z,99755.45
2023-04-24T11:01:19.828Z,99751.12
2023-04-24T11:04:19.829Z,99746.63
2023-04-24T11:07:19.785Z,99744.48
2023-04-24T11:10:19.867Z,99740.45
2023-04-24T11:13:19.767Z,99739.33
2023-04-24T11:16:31.869Z,99737.09
2023-04-24T11:19:32.832Z,99743.86
2023-04-24T11:22:32.909Z,99741.41
2023-04-24T11:25:32.843Z,99744.50
2023-04-24T11:28:34.781Z,99748.13
2023-04-24T11:31:49.857Z,99748.20
2023-04-24T11:34:49.811Z,99760.40
2023-04-24T11:38:08.152Z,99759.61
2023-04-24T11:41:11.804Z,99746.11
2023-04-24T11:44:11.823Z,99749.41
2023-04-24T11:47:11.983Z,99754.72
2023-04-24T11:50:12.125Z,99752.68
2023-04-24T11:53:04.884Z,99745.13
2023-04-24T11:56:05.017Z,99736.45
2023-04-24T11:59:06.939Z,99718.96
2023-04-24T12:02:09.936Z,99720.88
2023-04-24T12:05:03.213Z,99718.42
2023-04-24T12:07:48.940Z,99716.59
2023-04-24T12:10:34.851Z,99716.87
2023-04-24T12:13:17.674Z,99708.21
2023-04-24T12:16:03.937Z,99708.92
2023-04-24T12:18:54.906Z,99707.23
2023-04-24T12:21:48.977Z,99712.52
2023-04-24T12:24:48.881Z,99715.54
2023-04-24T12:27:48.888Z,99715.08
2023-04-24T12:30:51.893Z,99725.48
2023-04-24T12:33:53.930Z,99751.59
2023-04-24T12:36:54.005Z,99734.00
2023-04-24T12:39:53.920Z,99738.30
2023-04-24T12:42:58.166Z,99737.33
2023-04-24T12:45:57.961Z,99729.68
2023-04-24T12:48:57.938Z,99729.90
2023-04-24T12:51:59.065Z,99727.69
2023-04-24T12:54:58.937Z,99723.00
2023-04-24T12:58:01.978Z,99709.05
2023-04-24T13:01:02.047Z,99702.15
2023-04-24T13:04:02.181Z,99696.55
2023-04-24T13:07:01.975Z,99706.71
2023-04-24T13:10:05.024Z,99705.63
2023-04-24T13:13:04.992Z,99701.94
2023-04-24T13:16:05.029Z,99696.02
2023-04-24T13:19:06.026Z,99697.98
2023-04-24T13:22:06.008Z,99692.54
2023-04-24T13:25:07.017Z,99693.35
2023-04-24T13:28:07.081Z,99694.83
2023-04-24T13:31:07.996Z,99698.60
2023-04-24T13:34:08.078Z,99691.00
2023-04-24T13:37:08.029Z,99696.58
2023-04-24T13:40:08.105Z,99687.41
2023-04-24T13:43:09.133Z,99684.23
2023-04-24T13:46:10.070Z,99680.30
2023-04-24T13:49:10.044Z,99676.88
2023-04-24T13:52:10.085Z,99675.43
2023-04-24T13:55:10.047Z,99679.39
2023-04-24T13:58:10.116Z,99677.67
2023-04-24T14:01:10.108Z,99679.77
2023-04-24T14:04:10.214Z,99687.48
2023-04-24T14:07:10.085Z,99686.85
2023-04-24T14:10:10.087Z,99684.44
2023-04-24T14:13:10.131Z,99684.52
2023-04-24T14:16:10.200Z,99682.37
2023-04-24T14:19:10.146Z,99675.71
2023-04-24T14:22:10.100Z,99675.88
2023-04-24T14:25:10.177Z,99671.70
2023-04-24T14:28:10.079Z,99667.02
2023-04-24T14:31:10.290Z,99658.45
2023-04-24T14:34:10.124Z,99658.91
2023-04-24T14:37:13.221Z,99651.17
2023-04-24T14:40:32.020Z,99646.79
2023-04-24T14:43:35.194Z,99642.89
2023-04-24T14:46:35.351Z,99641.33
2023-04-24T14:49:35.407Z,99636.08
2023-04-24T14:52:35.152Z,99639.96
2023-04-24T14:55:35.116Z,99640.59
2023-04-24T14:58:35.191Z,99642.41
2023-04-24T15:01:35.194Z,99640.46
2023-04-24T15:04:35.452Z,99642.14
2023-04-24T15:07:35.170Z,99637.07
2023-04-24T15:10:36.256Z,99634.13
2023-04-24T15:13:36.170Z,99631.14
2023-04-24T15:16:37.318Z,99631.24
2023-04-24T15:19:40.218Z,99625.71
2023-04-24T15:22:41.631Z,99626.10
2023-04-24T15:25:41.204Z,99620.58
2023-04-24T15:28:41.295Z,99619.56
2023-04-24T15:31:41.323Z,99621.22
2023-04-24T15:34:41.351Z,99622.61
2023-04-24T15:37:41.284Z,99618.42
2023-04-24T15:40:42.346Z,99616.15
2023-04-24T15:43:42.233Z,99614.12
2023-04-24T15:46:42.261Z,99613.12
2023-04-24T15:49:42.288Z,99611.07
2023-04-24T15:52:42.256Z,99609.05
2023-04-24T15:55:43.335Z,99595.71
2023-04-24T15:58:46.503Z,99593.48
2023-04-24T16:01:46.389Z,99593.34
2023-04-24T16:04:46.496Z,99591.27
2023-04-24T16:07:48.292Z,99584.18
2023-04-24T16:10:46.282Z,99586.67
2023-04-24T16:13:47.348Z,99578.75
2023-04-24T16:16:47.466Z,99582.25
2023-04-24T16:19:47.279Z,99581.23
2023-04-24T16:22:47.395Z,99579.36
2023-04-24T16:25:47.335Z,99574.41
2023-04-24T16:28:49.640Z,99573.45
2023-04-24T16:31:50.370Z,99568.27
2023-04-24T16:34:50.368Z,99572.16
2023-04-24T16:37:50.308Z,99571.34
2023-04-24T16:40:44.398Z,99568.80
2023-04-24T16:43:31.350Z,99566.94
2023-04-24T16:46:31.415Z,99568.56
2023-04-24T16:49:31.421Z,99579.02
2023-04-24T16:52:24.531Z,99580.12
2023-04-24T16:55:24.417Z,99581.73
2023-04-24T16:58:24.426Z,99584.19
2023-04-24T17:01:28.685Z,99583.91
2023-04-24T17:04:28.523Z,99581.34
2023-04-24T17:07:28.411Z,99577.72
2023-04-24T17:10:31.520Z,99577.91
2023-04-24T17:13:31.425Z,99578.64
2023-04-24T17:16:31.484Z,99577.96
2023-04-24T17:19:32.412Z,99577.81
2023-04-24T17:22:32.445Z,99578.17
2023-04-24T17:25:32.459Z,99579.76
2023-04-24T17:28:36.477Z,99581.48
2023-04-24T17:31:36.484Z,99579.42
2023-04-24T17:34:36.447Z,99580.98
2023-04-24T17:37:36.456Z,99587.57
2023-04-24T17:40:38.785Z,99588.42
2023-04-24T17:43:38.466Z,99588.44
2023-04-24T17:46:38.624Z,99587.38
2023-04-24T17:49:38.566Z,99587.55
2023-04-24T17:52:38.534Z,99587.54
2023-04-24T17:55:38.521Z,99586.66
2023-04-24T17:58:38.571Z,99589.94
2023-04-24T18:01:38.706Z,99595.30
2023-04-24T18:04:38.752Z,99600.48
2023-04-24T18:07:39.550Z,99603.23
2023-04-24T18:10:39.510Z,99604.41
2023-04-24T18:13:40.519Z,99607.86
2023-04-24T18:16:42.559Z,99611.31
2023-04-24T18:19:42.557Z,99614.23
2023-04-24T18:22:42.528Z,99614.90
2023-04-24T18:25:43.537Z,99614.71
2023-04-24T18:28:43.570Z,99616.08
2023-04-24T18:31:43.596Z,99623.16
2023-04-24T18:34:43.582Z,99626.79
2023-04-24T18:37:43.549Z,99627.45
2023-04-24T18:40:43.619Z,99635.41
2023-04-24T18:43:43.579Z,99636.12
2023-04-24T18:46:47.657Z,99637.67
2023-04-24T18:49:47.656Z,99638.73
2023-04-24T18:52:47.620Z,99629.56
2023-04-24T18:55:47.609Z,99632.65
2023-04-24T18:58:51.073Z,99636.27
2023-04-24T19:01:51.880Z,99636.24
2023-04-24T19:04:52.666Z,99632.95
2023-04-24T19:07:53.571Z,99626.54
2023-04-24T19:10:54.645Z,99625.67
2023-04-24T19:13:57.650Z,99623.90
2023-04-24T19:16:57.755Z,99625.27
2023-04-24T19:19:57.611Z,99627.46
2023-04-24T19:22:58.632Z,99626.23
2023-04-24T19:25:59.670Z,99634.82
2023-04-24T19:28:59.625Z,99635.13
2023-04-24T19:32:00.795Z,99631.98
2023-04-24T19:35:00.647Z,99632.76
2023-04-24T19:38:00.733Z,99632.72
2023-04-24T19:41:00.745Z,99627.85
2023-04-24T19:44:01.763Z,99626.79
2023-04-24T19:47:02.979Z,99625.21
2023-04-24T19:50:02.837Z,99625.48
2023-04-24T19:53:02.695Z,99623.27
2023-04-24T19:56:02.732Z,99629.15
2023-04-24T19:59:02.688Z,99628.21
2023-04-24T20:02:02.715Z,99629.36
2023-04-24T20:05:03.018Z,99626.73
2023-04-24T20:08:03.713Z,99623.33
2023-04-24T20:11:04.816Z,99622.00
2023-04-24T20:14:07.882Z,99618.85
2023-04-24T20:17:00.731Z,99619.16
2023-04-24T20:19:46.841Z,99617.58
2023-04-24T20:22:46.758Z,99621.96
2023-04-24T20:25:46.751Z,99631.70
2023-04-24T20:28:46.842Z,99630.84
2023-04-24T20:31:46.825Z,99623.31
2023-04-24T20:34:46.786Z,99623.01
2023-04-24T20:37:46.902Z,99620.95
2023-04-24T20:40:57.191Z,99619.07
2023-04-24T20:43:57.814Z,99617.18
2023-04-24T20:46:57.930Z,99616.84
2023-04-24T20:49:57.775Z,99617.67
2023-04-24T20:52:58.893Z,99618.67
2023-04-24T20:56:00.002Z,99614.83
2023-04-24T20:58:55.347Z,99614.04
2023-04-24T21:01:42.852Z,99616.35
2023-04-24T21:04:38.017Z,99615.44
2023-04-24T21:07:37.816Z,99613.85
2023-04-24T21:10:37.853Z,99606.91
2023-04-24T21:13:39.885Z,99604.98
2023-04-24T21:16:40.060Z,99604.26
2023-04-24T21:19:39.833Z,99602.15
2023-04-24T21:22:39.859Z,99608.14
2023-04-24T21:25:39.867Z,99604.84
2023-04-24T21:28:40.862Z,99599.25
2023-04-24T21:31:40.887Z,99603.16
2023-04-24T21:34:41.851Z,99598.99
2023-04-24T21:37:42.868Z,99600.66
2023-04-24T21:40:42.926Z,99596.85
2023-04-24T21:43:44.969Z,99594.10
2023-04-24T21:46:47.882Z,99592.39
2023-04-24T21:49:50.016Z,99587.91
2023-04-24T21:52:49.898Z,99587.05
2023-04-24T21:55:49.877Z,99584.80
2023-04-24T21:58:49.950Z,99581.38
2023-04-24T22:01:49.985Z,99584.81
2023-04-24T22:04:50.132Z,99587.39
2023-04-24T22:07:53.122Z,99587.55
2023-04-24T22:10:52.922Z,99584.25
2023-04-24T22:13:53.984Z,99586.46
2023-04-24T22:16:53.960Z,99583.31
2023-04-24T22:19:55.014Z,99585.35
2023-04-24T22:22:59.223Z,99579.48
2023-04-24T22:25:59.015Z,99577.71
2023-04-24T22:29:00.125Z,99575.99
2023-04-24T22:32:02.029Z,99572.16
2023-04-24T22:35:02.011Z,99572.45
2023-04-24T22:38:06.047Z,99568.63
2023-04-24T22:41:05.973Z,99566.70
2023-04-24T22:44:06.034Z,99564.25
2023-04-24T22:46:59.287Z,99561.79
2023-04-24T22:50:00.070Z,99558.82
2023-04-24T22:53:03.111Z,99551.35
2023-04-24T22:56:02.986Z,99549.04
2023-04-24T22:59:03.029Z,99550.05
2023-04-24T23:02:03.120Z,99550.50
2023-04-24T23:05:03.033Z,99548.41
2023-04-24T23:08:04.050Z,99542.85
2023-04-24T23:11:04.017Z,99544.87
2023-04-24T23:14:04.056Z,99542.60
2023-04-24T23:17:04.097Z,99542.97
2023-04-24T23:20:04.038Z,99539.70
2023-04-24T23:23:04.039Z,99537.45
2023-04-24T23:26:04.045Z,99537.09
2023-04-24T23:29:04.049Z,99536.02
2023-04-24T23:32:04.113Z,99532.52
2023-04-24T23:35:04.042Z,99529.92
2023-04-24T23:38:04.090Z,99527.19
2023-04-24T23:41:04.036Z,99525.48
2023-04-24T23:44:04.130Z,99522.24
2023-04-24T23:47:04.111Z,99519.14
2023-04-24T23:50:05.128Z,99523.92
2023-04-24T23:53:06.133Z,99524.41
2023-04-24T23:56:08.213Z,99516.27
2023-04-24T23:59:08.558Z,99518.38
